Decoded Metar for KMEM (MEMPHIS in TN, USA) (IATA:MEM) | Meteo·Mobile Aviation Weather
aviador You're here:

KMEM Decoded Metar

MEMPHIS in TN, USA
Report Time2018-09-23 20:37:00
UTC Time2018-09-23 20:46:06
Flight Rules vfr VFR
Wind270° at 04 kt
W.Decomp.*RWY 27: 4.0 kt HW 0.1 kt LCW
RWY 18: 0.1 kt HW 4.0 kt RCW
W.Rank270° ranks 36
Current wind is below 270° avg. (6.9)
Visibility9999 m
Phenomena:N/A
Clouds:Scattered 012 Hf
Scattered 024 Hf
Broken 070 Hf
Expected CloudBase > 800 ft AGL from Temp-Dew spread
Ceiling7,000 ft
Temp25°C (ISA +11)
Dew Point23°C (89% RH)
QNH1014 hPa
Density Alt1,841 ft
Elevation282 ft
Report Wrong Elevation
Raw Report
KMEM 232037Z 27004KT 10SM SCT012 SCT024 BKN070 25/23 A2993 RMK AO2
T02500233=

Extra information for KMEM:More info

Metar Taf Metar & Taf Last 4 Metars F.Rules Stats Wind Profile Meteogram Temp Stats Airport Information Weather charts Add Link Nearby VenuesMetar ALERT Operation Metar Decoded Social comments

AIRNAV info for KMEM